Time,TemperatureF,DewpointF,PressureIn,WindDirection,WindDirectionDegrees,WindSpeedMPH,WindSpeedGustMPH,Humidity,HourlyPrecipIn,Conditions,Clouds,dailyrainin,SolarRadiationWatts/m^2,SoftwareType,DateUTC
2013-01-12 00:02:00,16.0,13.0,-100.00,WSW,249,4.0,5.0,87,0.00,,,0.00,0.000000,,2013-01-12 08:02:00,
2013-01-12 00:11:00,16.0,13.0,-100.00,WSW,249,4.0,5.0,87,0.00,,,0.00,0.000000,,2013-01-12 08:11:00,
2013-01-12 00:22:00,16.0,13.0,-100.00,WSW,249,4.0,5.0,87,0.00,,,0.00,0.000000,,2013-01-12 08:22:00,
2013-01-12 00:30:00,16.0,13.0,-100.00,West,271,4.0,6.0,89,0.00,,,0.00,0.000000,,2013-01-12 08:30:00,
2013-01-12 00:52:00,16.0,13.0,-100.00,West,271,4.0,6.0,89,0.00,,,0.00,0.000000,,2013-01-12 08:52:00,
2013-01-12 01:02:00,16.0,13.0,-100.00,West,271,4.0,6.0,89,0.00,,,0.00,0.000000,,2013-01-12 09:02:00,
2013-01-12 01:12:00,16.0,13.0,-100.00,West,271,4.0,6.0,89,0.00,,,0.00,0.000000,,2013-01-12 09:12:00,
2013-01-12 01:22:00,16.0,13.0,-100.00,West,271,4.0,6.0,89,0.00,,,0.00,0.000000,,2013-01-12 09:22:00,
2013-01-12 01:30:00,17.0,15.0,-100.00,WNW,301,3.0,6.0,90,0.00,,,-99.99,0.000000,,2013-01-12 09:30:00,
2013-01-12 01:53:00,17.0,15.0,-100.00,WNW,301,3.0,6.0,90,0.00,,,-99.99,0.000000,,2013-01-12 09:53:00,
2013-01-12 02:02:00,17.0,15.0,-100.00,WNW,301,3.0,6.0,90,0.00,,,-99.99,0.000000,,2013-01-12 10:02:00,
2013-01-12 02:11:00,17.0,15.0,-100.00,WNW,301,3.0,6.0,90,0.00,,,-99.99,0.000000,,2013-01-12 10:11:00,
2013-01-12 02:22:00,17.0,15.0,-100.00,WNW,301,3.0,6.0,90,0.00,,,-99.99,0.000000,,2013-01-12 10:22:00,
2013-01-12 02:30:00,17.0,15.0,-100.00,NW,321,3.0,4.0,91,0.00,,,0.00,0.000000,,2013-01-12 10:30:00,
2013-01-12 02:52:00,17.0,15.0,-100.00,NW,321,3.0,4.0,91,0.00,,,0.00,0.000000,,2013-01-12 10:52:00,
2013-01-12 03:02:00,17.0,15.0,-100.00,NW,321,3.0,4.0,91,0.00,,,0.00,0.000000,,2013-01-12 11:02:00,
2013-01-12 03:12:00,17.0,15.0,-100.00,NW,321,3.0,4.0,91,0.00,,,0.00,0.000000,,2013-01-12 11:12:00,
2013-01-12 03:22:00,17.0,15.0,-100.00,NW,321,3.0,4.0,91,0.00,,,0.00,0.000000,,2013-01-12 11:22:00,
2013-01-12 03:30:00,15.0,12.0,-100.00,SE,136,1.0,5.0,87,0.00,,,0.00,0.000000,,2013-01-12 11:30:00,
2013-01-12 03:53:00,15.0,12.0,-100.00,SE,136,1.0,5.0,87,0.00,,,0.00,0.000000,,2013-01-12 11:53:00,
2013-01-12 04:02:00,15.0,12.0,-100.00,SE,136,1.0,5.0,87,0.00,,,0.00,0.000000,,2013-01-12 12:02:00,
2013-01-12 04:12:00,15.0,12.0,-100.00,SE,136,1.0,5.0,87,0.00,,,0.00,0.000000,,2013-01-12 12:12:00,
2013-01-12 04:22:00,15.0,12.0,-100.00,SE,136,1.0,5.0,87,0.00,,,0.00,0.000000,,2013-01-12 12:22:00,
2013-01-12 04:30:00,15.0,12.0,-100.00,West,263,3.0,4.0,86,0.00,,,0.00,0.000000,,2013-01-12 12:30:00,
2013-01-12 04:53:00,15.0,12.0,-100.00,West,263,3.0,4.0,86,0.00,,,0.00,0.000000,,2013-01-12 12:53:00,
2013-01-12 05:02:00,15.0,12.0,-100.00,West,263,3.0,4.0,86,0.00,,,0.00,0.000000,,2013-01-12 13:02:00,
2013-01-12 05:12:00,15.0,12.0,-100.00,West,263,3.0,4.0,86,0.00,,,0.00,0.000000,,2013-01-12 13:12:00,
2013-01-12 05:22:00,15.0,12.0,-100.00,West,263,3.0,4.0,86,0.00,,,0.00,0.000000,,2013-01-12 13:22:00,
2013-01-12 05:30:00,15.0,12.0,-100.00,WNW,301,4.0,5.0,86,0.00,,,0.00,0.000000,,2013-01-12 13:30:00,
2013-01-12 05:53:00,15.0,12.0,-100.00,WNW,301,4.0,5.0,86,0.00,,,0.00,0.000000,,2013-01-12 13:53:00,
2013-01-12 06:02:00,15.0,12.0,-100.00,WNW,301,4.0,5.0,86,0.00,,,0.00,0.000000,,2013-01-12 14:02:00,
2013-01-12 06:12:00,15.0,12.0,-100.00,WNW,301,4.0,5.0,86,0.00,,,0.00,0.000000,,2013-01-12 14:12:00,
2013-01-12 06:22:00,15.0,12.0,-100.00,WNW,301,4.0,5.0,86,0.00,,,0.00,0.000000,,2013-01-12 14:22:00,
2013-01-12 06:30:00,18.0,15.0,-100.00,WSW,256,3.0,4.0,89,0.00,,,0.00,0.000000,,2013-01-12 14:30:00,
2013-01-12 06:53:00,18.0,15.0,-100.00,WSW,256,3.0,4.0,89,0.00,,,0.00,0.000000,,2013-01-12 14:53:00,
2013-01-12 07:03:00,18.0,15.0,-100.00,WSW,256,3.0,4.0,89,0.00,,,0.00,0.000000,,2013-01-12 15:03:00,
2013-01-12 07:12:00,18.0,15.0,-100.00,WSW,256,3.0,4.0,89,0.00,,,0.00,0.000000,,2013-01-12 15:12:00,
2013-01-12 07:22:00,18.0,15.0,-100.00,WSW,256,3.0,4.0,89,0.00,,,0.00,0.000000,,2013-01-12 15:22:00,
2013-01-12 07:30:00,22.0,20.0,-100.00,NW,310,3.0,5.0,93,0.00,,,0.00,0.000000,,2013-01-12 15:30:00,
2013-01-12 07:53:00,22.0,20.0,-100.00,NW,310,3.0,5.0,93,0.00,,,0.00,0.000000,,2013-01-12 15:53:00,
2013-01-12 08:03:00,22.0,20.0,-100.00,NW,310,3.0,5.0,93,0.00,,,0.00,0.000000,,2013-01-12 16:03:00,
2013-01-12 08:12:00,22.0,20.0,-100.00,NW,310,3.0,5.0,93,0.00,,,0.00,0.000000,,2013-01-12 16:12:00,
2013-01-12 08:22:00,22.0,20.0,-100.00,NW,310,3.0,5.0,93,0.00,,,0.00,0.000000,,2013-01-12 16:22:00,
2013-01-12 08:30:00,21.0,19.0,-100.00,WSW,246,3.0,4.0,92,0.00,,,0.00,17.000000,,2013-01-12 16:30:00,
2013-01-12 08:53:00,21.0,19.0,-100.00,WSW,246,3.0,4.0,92,0.00,,,0.00,17.000000,,2013-01-12 16:53:00,
2013-01-12 09:02:00,21.0,19.0,-100.00,WSW,246,3.0,4.0,92,0.00,,,0.00,17.000000,,2013-01-12 17:02:00,
2013-01-12 09:12:00,21.0,19.0,-100.00,WSW,246,3.0,4.0,92,0.00,,,0.00,17.000000,,2013-01-12 17:12:00,
2013-01-12 09:22:00,21.0,19.0,-100.00,WSW,246,3.0,4.0,92,0.00,,,0.00,17.000000,,2013-01-12 17:22:00,
2013-01-12 09:30:00,24.0,22.0,-100.00,WSW,256,4.0,7.0,92,0.00,,,0.00,74.000000,,2013-01-12 17:30:00,
2013-01-12 09:53:00,24.0,22.0,-100.00,WSW,256,4.0,7.0,92,0.00,,,0.00,74.000000,,2013-01-12 17:53:00,
2013-01-12 10:02:00,24.0,22.0,-100.00,WSW,256,4.0,7.0,92,0.00,,,0.00,74.000000,,2013-01-12 18:02:00,
2013-01-12 10:12:00,24.0,22.0,-100.00,WSW,256,4.0,7.0,92,0.00,,,0.00,74.000000,,2013-01-12 18:12:00,
2013-01-12 10:22:00,24.0,22.0,-100.00,WSW,256,4.0,7.0,92,0.00,,,0.00,74.000000,,2013-01-12 18:22:00,
2013-01-12 10:30:00,30.0,20.0,-100.00,ENE,61,3.0,5.0,66,0.00,,,0.00,172.000000,,2013-01-12 18:30:00,
2013-01-12 10:53:00,30.0,20.0,-100.00,ENE,61,3.0,5.0,66,0.00,,,0.00,172.000000,,2013-01-12 18:53:00,
2013-01-12 11:03:00,30.0,20.0,-100.00,ENE,61,3.0,5.0,66,0.00,,,0.00,172.000000,,2013-01-12 19:03:00,
2013-01-12 11:12:00,30.0,20.0,-100.00,ENE,61,3.0,5.0,66,0.00,,,0.00,172.000000,,2013-01-12 19:12:00,
2013-01-12 11:22:00,30.0,20.0,-100.00,ENE,61,3.0,5.0,66,0.00,,,0.00,172.000000,,2013-01-12 19:22:00,
2013-01-12 11:30:00,32.0,17.0,-100.00,West,271,4.0,7.0,53,0.00,,,0.00,272.000000,,2013-01-12 19:30:00,
2013-01-12 11:53:00,32.0,17.0,-100.00,West,271,4.0,7.0,53,0.00,,,0.00,272.000000,,2013-01-12 19:53:00,
2013-01-12 12:02:00,32.0,17.0,-100.00,West,271,4.0,7.0,53,0.00,,,0.00,272.000000,,2013-01-12 20:02:00,
2013-01-12 12:12:00,32.0,17.0,-100.00,West,271,4.0,7.0,53,0.00,,,0.00,272.000000,,2013-01-12 20:12:00,
2013-01-12 12:22:00,32.0,17.0,-100.00,West,271,4.0,7.0,53,0.00,,,0.00,272.000000,,2013-01-12 20:22:00,
2013-01-12 12:30:00,32.0,14.0,-100.00,West,279,6.0,11.0,47,0.00,,,0.00,314.000000,,2013-01-12 20:30:00,
2013-01-12 12:53:00,32.0,14.0,-100.00,West,279,6.0,11.0,47,0.00,,,0.00,314.000000,,2013-01-12 20:53:00,
2013-01-12 13:02:00,32.0,14.0,-100.00,West,279,6.0,11.0,47,0.00,,,0.00,314.000000,,2013-01-12 21:02:00,
2013-01-12 13:12:00,32.0,14.0,-100.00,West,279,6.0,11.0,47,0.00,,,0.00,314.000000,,2013-01-12 21:12:00,
2013-01-12 13:22:00,32.0,14.0,-100.00,West,279,6.0,11.0,47,0.00,,,0.00,314.000000,,2013-01-12 21:22:00,
2013-01-12 13:30:00,34.0,15.0,-100.00,West,280,5.0,14.0,46,0.00,,,0.00,319.000000,,2013-01-12 21:30:00,
2013-01-12 13:53:00,34.0,15.0,-100.00,West,280,5.0,14.0,46,0.00,,,0.00,319.000000,,2013-01-12 21:53:00,
2013-01-12 14:02:00,34.0,15.0,-100.00,West,280,5.0,14.0,46,0.00,,,0.00,319.000000,,2013-01-12 22:02:00,
2013-01-12 14:12:00,34.0,15.0,-100.00,West,280,5.0,14.0,46,0.00,,,0.00,319.000000,,2013-01-12 22:12:00,
2013-01-12 14:22:00,34.0,15.0,-100.00,West,280,5.0,14.0,46,0.00,,,0.00,319.000000,,2013-01-12 22:22:00,
2013-01-12 14:30:00,34.0,13.0,-100.00,NE,51,6.0,11.0,42,0.00,,,0.00,270.000000,,2013-01-12 22:30:00,
2013-01-12 14:53:00,34.0,13.0,-100.00,NE,51,6.0,11.0,42,0.00,,,0.00,270.000000,,2013-01-12 22:53:00,
2013-01-12 15:02:00,34.0,13.0,-100.00,NE,51,6.0,11.0,42,0.00,,,0.00,270.000000,,2013-01-12 23:02:00,
2013-01-12 15:12:00,34.0,13.0,-100.00,NE,51,6.0,11.0,42,0.00,,,0.00,270.000000,,2013-01-12 23:12:00,
2013-01-12 15:22:00,34.0,13.0,-100.00,NE,51,6.0,11.0,42,0.00,,,0.00,270.000000,,2013-01-12 23:22:00,
2013-01-12 15:30:00,33.0,15.0,-100.00,NNW,334,8.0,13.0,47,0.00,,,-99.99,184.000000,,2013-01-12 23:30:00,
2013-01-12 15:53:00,33.0,15.0,-100.00,NNW,334,8.0,13.0,47,0.00,,,-99.99,184.000000,,2013-01-12 23:53:00,
2013-01-12 16:02:00,33.0,15.0,-100.00,NNW,334,8.0,13.0,47,0.00,,,-99.99,184.000000,,2013-01-13 00:02:00,
2013-01-12 16:12:00,33.0,15.0,-100.00,NNW,334,8.0,13.0,47,0.00,,,-99.99,184.000000,,2013-01-13 00:12:00,
2013-01-12 16:22:00,33.0,15.0,-100.00,NNW,334,8.0,13.0,47,0.00,,,-99.99,184.000000,,2013-01-13 00:22:00,
2013-01-12 16:30:00,30.0,15.0,-100.00,NNW,335,6.0,11.0,52,0.00,,,0.00,69.000000,,2013-01-13 00:30:00,
2013-01-12 16:53:00,30.0,15.0,-100.00,NNW,335,6.0,11.0,52,0.00,,,0.00,69.000000,,2013-01-13 00:53:00,
2013-01-12 17:02:00,30.0,15.0,-100.00,NNW,335,6.0,11.0,52,0.00,,,0.00,69.000000,,2013-01-13 01:02:00,
2013-01-12 17:12:00,30.0,15.0,-100.00,NNW,335,6.0,11.0,52,0.00,,,0.00,69.000000,,2013-01-13 01:12:00,
2013-01-12 17:22:00,30.0,15.0,-100.00,NNW,335,6.0,11.0,52,0.00,,,0.00,69.000000,,2013-01-13 01:22:00,
2013-01-12 17:30:00,25.0,13.0,-100.00,SE,142,1.0,10.0,61,0.00,,,0.00,1.000000,,2013-01-13 01:30:00,
2013-01-12 17:53:00,25.0,13.0,-100.00,SE,142,1.0,10.0,61,0.00,,,0.00,1.000000,,2013-01-13 01:53:00,
2013-01-12 18:02:00,25.0,13.0,-100.00,SE,142,1.0,10.0,61,0.00,,,0.00,1.000000,,2013-01-13 02:02:00,
2013-01-12 18:12:00,25.0,13.0,-100.00,SE,142,1.0,10.0,61,0.00,,,0.00,1.000000,,2013-01-13 02:12:00,
2013-01-12 18:22:00,25.0,13.0,-100.00,SE,142,1.0,10.0,61,0.00,,,0.00,1.000000,,2013-01-13 02:22:00,
2013-01-12 18:30:00,20.0,10.0,-100.00,SSW,194,6.0,8.0,64,0.00,,,0.00,0.000000,,2013-01-13 02:30:00,
2013-01-12 18:53:00,20.0,10.0,-100.00,SSW,194,6.0,8.0,64,0.00,,,0.00,0.000000,,2013-01-13 02:53:00,
2013-01-12 19:02:00,20.0,10.0,-100.00,SSW,194,6.0,8.0,64,0.00,,,0.00,0.000000,,2013-01-13 03:02:00,
2013-01-12 19:12:00,20.0,10.0,-100.00,SSW,194,6.0,8.0,64,0.00,,,0.00,0.000000,,2013-01-13 03:12:00,
2013-01-12 19:22:00,20.0,10.0,-100.00,SSW,194,6.0,8.0,64,0.00,,,0.00,0.000000,,2013-01-13 03:22:00,
2013-01-12 19:30:00,18.0,13.0,-100.00,SSE,151,2.0,6.0,79,0.00,,,0.00,0.000000,,2013-01-13 03:30:00,
2013-01-12 19:53:00,18.0,13.0,-100.00,SSE,151,2.0,6.0,79,0.00,,,0.00,0.000000,,2013-01-13 03:53:00,
2013-01-12 20:02:00,18.0,13.0,-100.00,SSE,151,2.0,6.0,79,0.00,,,0.00,0.000000,,2013-01-13 04:02:00,
2013-01-12 20:12:00,18.0,13.0,-100.00,SSE,151,2.0,6.0,79,0.00,,,0.00,0.000000,,2013-01-13 04:12:00,
2013-01-12 20:22:00,18.0,13.0,-100.00,SSE,151,2.0,6.0,79,0.00,,,0.00,0.000000,,2013-01-13 04:22:00,
2013-01-12 20:30:00,17.0,12.0,-100.00,NW,308,3.0,7.0,80,0.00,,,0.00,0.000000,,2013-01-13 04:30:00,
2013-01-12 20:52:00,17.0,12.0,-100.00,NW,308,3.0,7.0,80,0.00,,,0.00,0.000000,,2013-01-13 04:52:00,
2013-01-12 21:03:00,17.0,12.0,-100.00,NW,308,3.0,7.0,80,0.00,,,0.00,0.000000,,2013-01-13 05:03:00,
2013-01-12 21:12:00,17.0,12.0,-100.00,NW,308,3.0,7.0,80,0.00,,,0.00,0.000000,,2013-01-13 05:12:00,
2013-01-12 21:22:00,17.0,12.0,-100.00,NW,308,3.0,7.0,80,0.00,,,0.00,0.000000,,2013-01-13 05:22:00,
2013-01-12 21:53:00,13.0,9.0,-100.00,West,259,2.0,7.0,84,0.00,,,0.00,0.000000,,2013-01-13 05:53:00,
2013-01-12 22:02:00,13.0,9.0,-100.00,West,259,2.0,7.0,84,0.00,,,0.00,0.000000,,2013-01-13 06:02:00,
2013-01-12 22:30:00,12.0,8.0,-100.00,NW,323,3.0,4.0,85,0.00,,,0.00,0.000000,,2013-01-13 06:30:00,
2013-01-12 22:52:00,12.0,8.0,-100.00,NW,323,3.0,4.0,85,0.00,,,0.00,0.000000,,2013-01-13 06:52:00,
2013-01-12 23:02:00,12.0,8.0,-100.00,NW,323,3.0,4.0,85,0.00,,,0.00,0.000000,,2013-01-13 07:02:00,
2013-01-12 23:12:00,12.0,8.0,-100.00,NW,323,3.0,4.0,85,0.00,,,0.00,0.000000,,2013-01-13 07:12:00,
2013-01-12 23:22:00,12.0,8.0,-100.00,NW,323,3.0,4.0,85,0.00,,,0.00,0.000000,,2013-01-13 07:22:00,
2013-01-12 23:30:00,13.0,10.0,-100.00,West,260,3.0,5.0,86,0.00,,,0.00,0.000000,,2013-01-13 07:30:00,
2013-01-12 23:52:00,13.0,10.0,-100.00,West,260,3.0,5.0,86,0.00,,,0.00,0.000000,,2013-01-13 07:52:00,